Mora, MN

2:14 AM CST on December 08, 2016 (GMT -0600)
Mora Municipal

Weather History for KJMR - November, 2010

Change the Weather History Date:

Saturday, November 6, 2010

  Actual Average Record
Temperature  
Mean Temperature 40 °F -  
Max Temperature 53 °F 45 °F 71 °F (2001)
Min Temperature 26 °F 23 °F -5 °F (1951)
Degree Days  
Heating Degree Days 26    
Moisture  
Dew Point 23 °F    
Average Humidity 55    
Maximum Humidity 74    
Minimum Humidity 35    
Precipitation  
Precipitation 0.00 in - - ()
Sea Level Pressure  
Sea Level Pressure 30.05 in    
Wind  
Wind Speed 5 mph (South)    
Max Wind Speed 18 mph    
Max Gust Speed 26 mph    
Visibility 10 miles    
Events      
Averages and records for this station are not official NWS values.
T = Trace of Precipitation, MM = Missing Value Source: NWS Daily Summary

Daily Weather History Graph

Daily Weather History Graph

Search for Another Location

Airport or City:

Trip Planner

Search our weather history database for the weather conditions in past years. The results will help you decide how hot, cold, wet, or windy it might be!

Date:

Astronomy

Nov. 06, 2010 Rise Set
Actual Time 8:00 AM CDT 5:52 PM CDT
Civil Twilight 7:28 AM CDT 6:23 PM CDT
Nautical Twilight 6:53 AM CDT 6:59 PM CDT
Astronomical Twilight 6:18 AM CDT 7:34 PM CDT
Moon 8:44 AM CDT (11/6) 5:53 PM CDT (11/6)
Length of Visible Light 10h 54m
Length of Day
9h 51m
New Moon, 0% of the Moon is Illuminated
Nov 6
New Moon
Nov 13
First Quarter
Nov 21
Full
Nov 28
Last Quarter
Dec 5
New

Hourly Weather History & Observations

Time (CDT) Temp. Windchill Dew Point Humidity Pressure Visibility Wind Dir Wind Speed Gust Speed Precip Events Conditions
12:17 AM 32.0 °F 28.7 °F 19.4 °F 60% 30.09 in 10.0 mi South 3.5 mph - N/A   Clear
12:37 AM 30.2 °F - 19.4 °F 64% 30.10 in 10.0 mi Calm Calm - N/A   Clear
12:57 AM 32.0 °F - 19.4 °F 60% 30.10 in 10.0 mi Calm Calm - N/A   Clear
1:17 AM 30.2 °F - 19.4 °F 64% 30.10 in 10.0 mi Calm Calm - N/A   Clear
1:37 AM 30.2 °F - 19.4 °F 64% 30.10 in 10.0 mi Calm Calm - N/A   Clear
2:17 AM 28.4 °F - 19.4 °F 69% 30.10 in 10.0 mi Calm Calm - N/A   Clear
2:37 AM 26.6 °F - 19.4 °F 74% 30.10 in 10.0 mi Calm Calm - N/A   Clear
2:57 AM 30.2 °F - 19.4 °F 64% 30.10 in 10.0 mi Calm Calm - N/A   Clear
3:17 AM 30.2 °F - 19.4 °F 64% 30.10 in 10.0 mi Calm Calm - N/A   Clear
3:37 AM 28.4 °F - 19.4 °F 69% 30.10 in 10.0 mi Calm Calm - N/A   Clear
3:57 AM 26.6 °F 22.6 °F 19.4 °F 74% 30.10 in 10.0 mi SE 3.5 mph - N/A   Clear
4:17 AM 26.6 °F - 19.4 °F 74% 30.11 in 10.0 mi Calm Calm - N/A   Clear
4:37 AM 26.6 °F - 19.4 °F 74% 30.11 in 10.0 mi Calm Calm - N/A   Clear
4:57 AM 26.6 °F - 19.4 °F 74% 30.10 in 10.0 mi Calm Calm - N/A   Clear
5:17 AM 30.2 °F 26.7 °F 21.2 °F 69% 30.09 in 10.0 mi SSE 3.5 mph - N/A   Clear
5:37 AM 30.2 °F - 21.2 °F 69% 30.10 in 10.0 mi Calm Calm - N/A   Clear
5:57 AM 30.2 °F 26.7 °F 21.2 °F 69% 30.09 in 10.0 mi SSE 3.5 mph - N/A   Clear
6:17 AM 30.2 °F - 21.2 °F 69% 30.10 in 10.0 mi Calm Calm - N/A   Clear
6:37 AM 30.2 °F 25.4 °F 21.2 °F 69% 30.10 in 10.0 mi South 4.6 mph - N/A   Clear
6:57 AM 30.2 °F 26.7 °F 21.2 °F 69% 30.10 in 10.0 mi SSE 3.5 mph - N/A   Clear
7:17 AM 30.2 °F 25.4 °F 21.2 °F 69% 30.09 in 10.0 mi South 4.6 mph - N/A   Clear
7:37 AM 30.2 °F 24.3 °F 21.2 °F 69% 30.09 in 10.0 mi SSE 5.8 mph - N/A   Clear
7:57 AM 32.0 °F 25.6 °F 23.0 °F 69% 30.08 in 10.0 mi South 6.9 mph - N/A   Clear
8:17 AM 32.0 °F 25.6 °F 23.0 °F 69% 30.08 in 10.0 mi South 6.9 mph - N/A   Clear
8:37 AM 32.0 °F 25.6 °F 21.2 °F 64% 30.08 in 10.0 mi South 6.9 mph - N/A   Clear
8:57 AM 32.0 °F 24.2 °F 23.0 °F 69% 30.09 in 10.0 mi South 9.2 mph - N/A   Clear
9:17 AM 33.8 °F 26.4 °F 23.0 °F 65% 30.08 in 10.0 mi South 9.2 mph - N/A   Clear
9:37 AM 35.6 °F 27.5 °F 23.0 °F 60% 30.07 in 10.0 mi South 11.5 mph 16.1 mph N/A   Clear
9:57 AM 35.6 °F 26.2 °F 23.0 °F 60% 30.07 in 10.0 mi South 15.0 mph - N/A   Clear
10:17 AM 35.6 °F 27.5 °F 23.0 °F 60% 30.07 in 10.0 mi SSW 11.5 mph 16.1 mph N/A   Clear
10:37 AM 37.4 °F 28.5 °F 21.2 °F 52% 30.07 in 10.0 mi South 15.0 mph - N/A   Clear
11:17 AM 42.8 °F 35.1 °F 23.0 °F 46% 30.06 in 10.0 mi South 16.1 mph 24.2 mph N/A   Clear
11:37 AM 44.6 °F 37.2 °F 24.8 °F 46% 30.06 in 10.0 mi South 17.3 mph - N/A   Clear
11:57 AM 44.6 °F 37.8 °F 23.0 °F 43% 30.06 in 10.0 mi South 15.0 mph - N/A   Clear
12:17 PM 46.4 °F 40.4 °F 23.0 °F 40% 30.05 in 10.0 mi SSW 13.8 mph 18.4 mph N/A   Clear
12:37 PM 50.0 °F - 26.6 °F 40% 30.04 in 10.0 mi SSW 12.7 mph 18.4 mph N/A   Clear
12:57 PM 50.0 °F - 24.8 °F 37% 30.02 in 10.0 mi SSW 15.0 mph 26.5 mph N/A   Clear
1:17 PM 50.0 °F - 24.8 °F 37% 30.01 in 10.0 mi SSW 17.3 mph 26.5 mph N/A   Clear
1:37 PM 50.0 °F - 23.0 °F 35% 30.00 in 10.0 mi SSW 17.3 mph 24.2 mph N/A   Clear
1:57 PM 51.8 °F - 24.8 °F 35% 30.00 in 10.0 mi SSW 16.1 mph 25.3 mph N/A   Clear
2:17 PM 51.8 °F - 26.6 °F 38% 29.99 in 10.0 mi SSW 16.1 mph 20.7 mph N/A   Clear
2:37 PM 53.6 °F - 26.6 °F 35% 29.99 in 10.0 mi SSW 18.4 mph 24.2 mph N/A   Clear
2:57 PM 53.6 °F - 26.6 °F 35% 29.98 in 10.0 mi SSW 17.3 mph 26.5 mph N/A   Clear
3:17 PM 53.6 °F - 26.6 °F 35% 29.97 in 10.0 mi SSW 16.1 mph - N/A   Clear
3:37 PM 53.6 °F - 26.6 °F 35% 29.98 in 10.0 mi SSW 12.7 mph 17.3 mph N/A   Clear
3:57 PM 53.6 °F - 26.6 °F 35% 29.98 in 10.0 mi SSW 12.7 mph - N/A   Clear
4:17 PM 53.6 °F - 26.6 °F 35% 29.98 in 10.0 mi SSW 15.0 mph 19.6 mph N/A   Clear
4:37 PM 53.6 °F - 26.6 °F 35% 29.98 in 10.0 mi South 11.5 mph - N/A   Clear
4:57 PM 50.0 °F - 26.6 °F 40% 29.97 in 10.0 mi South 9.2 mph - N/A   Clear
5:17 PM 50.0 °F - 26.6 °F 40% 29.98 in 10.0 mi South 8.1 mph - N/A   Clear
5:37 PM 50.0 °F - 26.6 °F 40% 29.98 in 10.0 mi South 8.1 mph - N/A   Clear
5:57 PM 48.2 °F - 26.6 °F 43% 29.99 in 10.0 mi South 6.9 mph - N/A   Clear
6:17 PM 48.2 °F - 26.6 °F 43% 29.98 in 10.0 mi South 5.8 mph - N/A   Clear
6:37 PM 48.2 °F - 26.6 °F 43% 29.98 in 10.0 mi SSE 5.8 mph - N/A   Clear
6:57 PM 46.4 °F 44.3 °F 26.6 °F 46% 29.98 in 10.0 mi SSE 4.6 mph - N/A   Clear
7:17 PM 44.6 °F 42.2 °F 26.6 °F 49% 29.97 in 10.0 mi SSE 4.6 mph - N/A   Clear
7:37 PM 44.6 °F 43.1 °F 26.6 °F 49% 29.98 in 10.0 mi SSE 3.5 mph - N/A   Clear
7:57 PM 44.6 °F - 26.6 °F 49% 29.98 in 10.0 mi Calm Calm - N/A   Clear
8:17 PM 44.6 °F 43.1 °F 28.4 °F 53% 29.99 in 10.0 mi SSE 3.5 mph - N/A   Clear
8:37 PM 44.6 °F 43.1 °F 28.4 °F 53% 29.98 in 10.0 mi SSE 3.5 mph - N/A   Clear
8:57 PM 42.8 °F 40.1 °F 28.4 °F 57% 29.99 in 10.0 mi South 4.6 mph - N/A   Clear
9:17 PM 42.8 °F 41.1 °F 26.6 °F 53% 29.98 in 10.0 mi South 3.5 mph - N/A   Clear
9:37 PM 42.8 °F - 26.6 °F 53% 29.99 in 10.0 mi Calm Calm - N/A   Clear
9:57 PM 42.8 °F 41.1 °F 26.6 °F 53% 29.99 in 10.0 mi SSE 3.5 mph - N/A   Clear
10:17 PM 35.6 °F - 26.6 °F 70% 29.99 in 10.0 mi Calm Calm - N/A   Clear
10:37 PM 35.6 °F - 26.6 °F 70% 29.99 in 10.0 mi Calm Calm - N/A   Clear
10:57 PM 35.6 °F - 26.6 °F 70% 29.99 in 10.0 mi Calm Calm - N/A   Clear
11:17 PM 32.0 °F - 26.6 °F 80% 29.99 in 10.0 mi Calm Calm - N/A   Clear
11:37 PM 32.0 °F - 26.6 °F 80% 30.00 in 10.0 mi Calm Calm - N/A   Clear
11:57 PM 32.0 °F - 26.6 °F 80% 29.99 in 10.0 mi Calm Calm - N/A   Clear